John G — WDF2677 — position and weather

sailwx.info

Track history (hours):
 
Tides and Currents Weather Stations Pressure Air Temp Water Temp Dewpoint Dewpoint Depression Visibility Wind Speed Wind Dir Waves Ship Positions

John G

More information available from US FCC via Universal Licensing System and Coast Guard Vessel Documentation Center.

Last reported at 2014-Sep-23 12:33 UTC. Time now 2014-Sep-23 16:26 UTC.
Position N 29°57' W 090°23'.

Length 30 m; draft 3.3 m.

Type: Towing. MMSI: 367009680.

Date/timePositionNaut miles runAvg speedWind from/ knotsBaromVisibWave heightAir tempDewpointWater temp
2014-Sep-23 12:33N 29°57' W 090°23'4 0.3
2014-Sep-23 00:17N 29°56' W 090°19'4 0.3
2014-Sep-22 11:33N 29°57' W 090°23'0 0.0
2014-Sep-22 10:33N 29°57' W 090°23'0 0.0
2014-Sep-22 09:33N 29°57' W 090°23'0 0.0
2014-Sep-22 08:33N 29°57' W 090°23'0 0.0
2014-Sep-22 07:33N 29°57' W 090°23'0 0.0
2014-Sep-22 06:33N 29°57' W 090°23'0 0.0
2014-Sep-22 05:33N 29°57' W 090°23'4 0.2
2014-Sep-21 12:33N 29°56' W 090°19'0 0.0
2014-Sep-21 11:33N 29°56' W 090°19'0 0.0
2014-Sep-21 10:33N 29°56' W 090°19'0 0.0
2014-Sep-21 09:33N 29°56' W 090°19'0 0.0
2014-Sep-21 08:32N 29°56' W 090°19'0 0.0
2014-Sep-21 07:32N 29°56' W 090°19'0 0.0
2014-Sep-21 06:31N 29°56' W 090°19'0 0.0
2014-Sep-21 05:33N 29°56' W 090°19'0 0.0
2014-Sep-21 04:33N 29°56' W 090°19'0 0.0
2014-Sep-21 03:33N 29°56' W 090°19'0 0.0
2014-Sep-21 01:33N 29°56' W 090°19'0 0.0
2014-Sep-21 00:30N 29°56' W 090°19'0 0.0
2014-Sep-20 09:23N 29°56' W 090°19'0 0.0
2014-Sep-20 08:29N 29°56' W 090°19'0 0.0
2014-Sep-20 07:22N 29°56' W 090°19'0 0.0
2014-Sep-20 06:13N 29°56' W 090°19'0 0.0
2014-Sep-20 04:20N 29°56' W 090°19'0 0.0
2014-Sep-20 03:26N 29°56' W 090°19'0 0.0
2014-Sep-20 02:21N 29°56' W 090°19'1 0.2
2014-Sep-19 23:33N 29°56' W 090°20'3 0.1
2014-Sep-18 22:06N 29°57' W 090°23'0 0.0
2014-Sep-18 12:33N 29°57' W 090°23'0 0.0
2014-Sep-18 11:33N 29°57' W 090°23'0 0.0
2014-Sep-18 10:33N 29°57' W 090°23'0 0.0
2014-Sep-18 09:33N 29°57' W 090°23'0 0.0
2014-Sep-18 08:33N 29°57' W 090°23'0 0.0
2014-Sep-18 07:34N 29°57' W 090°23'0 0.0
2014-Sep-18 06:33N 29°57' W 090°23'0 0.0
2014-Sep-18 05:33N 29°57' W 090°23'0 0.0
2014-Sep-18 04:33N 29°57' W 090°23'0 0.0
2014-Sep-18 03:34N 29°57' W 090°23'0 0.0
2014-Sep-18 02:33N 29°57' W 090°23'0 0.0
2014-Sep-18 01:33N 29°57' W 090°23'0 0.0
2014-Sep-17 12:33N 29°57' W 090°23'0 0.0
2014-Sep-17 11:33N 29°57' W 090°23'0 0.0
2014-Sep-17 10:33N 29°57' W 090°23'0 0.0
2014-Sep-17 09:33N 29°57' W 090°23'0 0.0
2014-Sep-17 08:33N 29°57' W 090°23'6 0.2
2014-Sep-16 02:15N 29°58' W 090°17'6 7.8
2014-Sep-16 01:32N 29°57' W 090°23'7 7.1
2014-Sep-16 00:33N 30°02' W 090°28'8 7.6
2014-Sep-15 23:33N 30°02' W 090°37'9 7.8
2014-Sep-15 22:21N 30°00' W 090°48'  
Track history (hours):
 
Tides and Currents Weather Stations Pressure Air Temp Water Temp Dewpoint Dewpoint Depression Visibility Wind Speed Wind Dir Waves Ship Positions

John G

More information available from US FCC via Universal Licensing System and Coast Guard Vessel Documentation Center.

Last reported at 2014-Sep-23 12:33 UTC. Time now 2014-Sep-23 16:26 UTC.
Position N 29°57' W 090°23'.

Length 30 m; draft 3.3 m.

Type: Towing. MMSI: 367009680.

Date/timePositionNaut miles runAvg speedWind from/ knotsBaromVisibWave heightAir tempDewpointWater temp
2014-Sep-23 12:33N 29°57' W 090°23'4 0.3
2014-Sep-23 00:17N 29°56' W 090°19'4 0.3
2014-Sep-22 11:33N 29°57' W 090°23'0 0.0
2014-Sep-22 10:33N 29°57' W 090°23'0 0.0
2014-Sep-22 09:33N 29°57' W 090°23'0 0.0
2014-Sep-22 08:33N 29°57' W 090°23'0 0.0
2014-Sep-22 07:33N 29°57' W 090°23'0 0.0
2014-Sep-22 06:33N 29°57' W 090°23'0 0.0
2014-Sep-22 05:33N 29°57' W 090°23'4 0.2
2014-Sep-21 12:33N 29°56' W 090°19'0 0.0
2014-Sep-21 11:33N 29°56' W 090°19'0 0.0
2014-Sep-21 10:33N 29°56' W 090°19'0 0.0
2014-Sep-21 09:33N 29°56' W 090°19'0 0.0
2014-Sep-21 08:32N 29°56' W 090°19'0 0.0
2014-Sep-21 07:32N 29°56' W 090°19'0 0.0
2014-Sep-21 06:31N 29°56' W 090°19'0 0.0
2014-Sep-21 05:33N 29°56' W 090°19'0 0.0
2014-Sep-21 04:33N 29°56' W 090°19'0 0.0
2014-Sep-21 03:33N 29°56' W 090°19'0 0.0
2014-Sep-21 01:33N 29°56' W 090°19'0 0.0
2014-Sep-21 00:30N 29°56' W 090°19'0 0.0
2014-Sep-20 09:23N 29°56' W 090°19'0 0.0
2014-Sep-20 08:29N 29°56' W 090°19'0 0.0
2014-Sep-20 07:22N 29°56' W 090°19'0 0.0
2014-Sep-20 06:13N 29°56' W 090°19'0 0.0
2014-Sep-20 04:20N 29°56' W 090°19'0 0.0
2014-Sep-20 03:26N 29°56' W 090°19'0 0.0
2014-Sep-20 02:21N 29°56' W 090°19'1 0.2
2014-Sep-19 23:33N 29°56' W 090°20'3 0.1
2014-Sep-18 22:06N 29°57' W 090°23'0 0.0
2014-Sep-18 12:33N 29°57' W 090°23'0 0.0
2014-Sep-18 11:33N 29°57' W 090°23'0 0.0
2014-Sep-18 10:33N 29°57' W 090°23'0 0.0
2014-Sep-18 09:33N 29°57' W 090°23'0 0.0
2014-Sep-18 08:33N 29°57' W 090°23'0 0.0
2014-Sep-18 07:34N 29°57' W 090°23'0 0.0
2014-Sep-18 06:33N 29°57' W 090°23'0 0.0
2014-Sep-18 05:33N 29°57' W 090°23'0 0.0
2014-Sep-18 04:33N 29°57' W 090°23'0 0.0
2014-Sep-18 03:34N 29°57' W 090°23'0 0.0
2014-Sep-18 02:33N 29°57' W 090°23'0 0.0
2014-Sep-18 01:33N 29°57' W 090°23'0 0.0
2014-Sep-17 12:33N 29°57' W 090°23'0 0.0
2014-Sep-17 11:33N 29°57' W 090°23'0 0.0
2014-Sep-17 10:33N 29°57' W 090°23'0 0.0
2014-Sep-17 09:33N 29°57' W 090°23'0 0.0
2014-Sep-17 08:33N 29°57' W 090°23'6 0.2
2014-Sep-16 02:15N 29°58' W 090°17'6 7.8
2014-Sep-16 01:32N 29°57' W 090°23'7 7.1
2014-Sep-16 00:33N 30°02' W 090°28'8 7.6
2014-Sep-15 23:33N 30°02' W 090°37'9 7.8
2014-Sep-15 22:21N 30°00' W 090°48'  

Dump ship's entire track history